createdAt,value
2018-07-23T00:02:59.684Z,95878.13
2018-07-23T00:05:30.760Z,95886.23
2018-07-23T00:07:59.356Z,95881.94
2018-07-23T00:10:28.119Z,95882.98
2018-07-23T00:12:56.667Z,95878.23
2018-07-23T00:15:25.477Z,95880.68
2018-07-23T00:17:54.069Z,95879.08
2018-07-23T00:20:23.467Z,95877.22
2018-07-23T00:22:52.012Z,95877.85
2018-07-23T00:25:20.636Z,95876.11
2018-07-23T00:27:49.236Z,95873.59
2018-07-23T00:30:17.824Z,95878.80
2018-07-23T00:32:46.565Z,95881.82
2018-07-23T00:35:15.120Z,95881.52
2018-07-23T00:37:43.924Z,95879.45
2018-07-23T00:40:12.515Z,95879.34
2018-07-23T00:42:41.139Z,95874.69
2018-07-23T00:45:10.176Z,95872.48
2018-07-23T00:50:29.652Z,95872.93
2018-07-23T00:52:58.214Z,95871.81
2018-07-23T00:55:26.947Z,95861.06
2018-07-23T00:57:55.524Z,95869.58
2018-07-23T01:00:24.088Z,95865.09
2018-07-23T01:02:52.655Z,95862.77
2018-07-23T01:05:26.229Z,95853.52
2018-07-23T01:07:56.212Z,95862.05
2018-07-23T01:10:24.825Z,95859.45
2018-07-23T01:12:53.431Z,95861.90
2018-07-23T01:15:22.065Z,95863.34
2018-07-23T01:17:50.629Z,95856.36
2018-07-23T01:20:19.263Z,95857.15
2018-07-23T01:22:47.857Z,95849.62
2018-07-23T01:25:16.448Z,95857.93
2018-07-23T01:27:45.042Z,95851.73
2018-07-23T01:30:13.624Z,95861.68
2018-07-23T01:32:42.258Z,95867.73
2018-07-23T01:35:10.961Z,95870.66
2018-07-23T01:37:39.510Z,95880.21
2018-07-23T01:40:08.115Z,95883.86
2018-07-23T01:42:36.696Z,95884.78
2018-07-23T01:45:05.653Z,95884.81
2018-07-23T01:47:34.260Z,95872.88
2018-07-23T01:50:02.817Z,95877.59
2018-07-23T01:52:31.374Z,95879.91
2018-07-23T01:55:00.024Z,95883.17
2018-07-23T01:57:28.593Z,95878.25
2018-07-23T01:59:57.200Z,95880.00
2018-07-23T02:02:26.610Z,95873.69
2018-07-23T02:04:55.153Z,95871.94
2018-07-23T02:07:26.009Z,95872.66
2018-07-23T02:09:54.622Z,95871.54
2018-07-23T02:12:23.175Z,95870.54
2018-07-23T02:14:51.783Z,95877.95
2018-07-23T02:17:20.398Z,95874.98
2018-07-23T02:19:49.255Z,95875.17
2018-07-23T02:22:17.864Z,95880.09
2018-07-23T02:24:46.557Z,95878.77
2018-07-23T02:27:15.562Z,95874.98
2018-07-23T02:29:44.189Z,95873.78
2018-07-23T02:32:12.780Z,95873.88
2018-07-23T02:34:41.641Z,95868.05
2018-07-23T02:37:10.470Z,95867.52
2018-07-23T02:39:39.040Z,95866.55
2018-07-23T02:42:07.642Z,95871.56
2018-07-23T02:44:36.208Z,95869.70
2018-07-23T02:47:04.816Z,95871.47
2018-07-23T02:49:33.362Z,95865.06
2018-07-23T02:52:01.916Z,95869.72
2018-07-23T02:54:30.535Z,95870.92
2018-07-23T02:56:59.083Z,95871.67
2018-07-23T02:59:27.936Z,95874.62
2018-07-23T03:01:56.500Z,95872.08
2018-07-23T03:04:25.057Z,95874.67
2018-07-23T03:06:53.625Z,95878.56
2018-07-23T03:09:22.207Z,95877.95
2018-07-23T03:11:50.784Z,95878.80
2018-07-23T03:14:19.361Z,95877.98
2018-07-23T03:16:47.917Z,95883.66
2018-07-23T03:19:16.529Z,95881.16
2018-07-23T03:21:45.173Z,95874.17
2018-07-23T03:24:13.824Z,95875.59
2018-07-23T03:26:42.399Z,95879.86
2018-07-23T03:29:11.416Z,95882.72
2018-07-23T03:31:40.036Z,95885.95
2018-07-23T03:34:08.635Z,95887.27
2018-07-23T03:36:37.177Z,95887.09
2018-07-23T03:39:08.039Z,95886.61
2018-07-23T03:41:36.643Z,95888.91
2018-07-23T03:44:05.769Z,95891.98
2018-07-23T03:46:37.319Z,95887.43
2018-07-23T03:49:06.362Z,95893.59
2018-07-23T03:51:34.936Z,95893.44
2018-07-23T03:54:03.550Z,95883.99
2018-07-23T03:56:32.123Z,95893.08
2018-07-23T03:59:00.689Z,95898.56
2018-07-23T04:01:29.249Z,95901.16
2018-07-23T04:03:57.931Z,95900.16
2018-07-23T04:06:27.346Z,95901.80
2018-07-23T04:08:55.980Z,95897.64
2018-07-23T04:11:24.551Z,95902.30
2018-07-23T04:13:53.148Z,95905.73
2018-07-23T04:16:21.910Z,95906.73
2018-07-23T04:18:50.499Z,95909.78
2018-07-23T04:21:19.081Z,95914.90
2018-07-23T04:23:47.640Z,95912.02
2018-07-23T04:26:16.209Z,95913.63
2018-07-23T04:28:44.796Z,95912.03
2018-07-23T04:31:13.445Z,95913.49
2018-07-23T04:33:42.169Z,95915.43
2018-07-23T04:36:10.719Z,95917.84
2018-07-23T04:38:39.336Z,95921.49
2018-07-23T04:41:07.976Z,95912.11
2018-07-23T04:43:36.656Z,95915.27
2018-07-23T04:46:05.300Z,95922.39
2018-07-23T04:48:34.151Z,95921.89
2018-07-23T04:51:02.752Z,95927.70
2018-07-23T04:53:31.692Z,95930.10
2018-07-23T04:56:00.765Z,95924.86
2018-07-23T04:58:29.343Z,95932.00
2018-07-23T05:00:58.169Z,95929.81
2018-07-23T05:03:26.778Z,95924.62
2018-07-23T05:05:55.316Z,95927.74
2018-07-23T05:08:23.998Z,95920.44
2018-07-23T05:10:52.561Z,95930.53
2018-07-23T05:13:21.211Z,95937.92
2018-07-23T05:15:49.836Z,95941.50
2018-07-23T05:18:18.567Z,95940.64
2018-07-23T05:20:47.200Z,95943.79
2018-07-23T05:23:15.781Z,95946.69
2018-07-23T05:25:44.330Z,95951.36
2018-07-23T05:28:12.924Z,95949.58
2018-07-23T05:30:41.492Z,95945.06
2018-07-23T05:33:10.228Z,95950.03
2018-07-23T05:35:38.800Z,95942.31
2018-07-23T05:38:07.396Z,95949.08
2018-07-23T05:40:35.963Z,95948.25
2018-07-23T05:43:04.601Z,95945.44
2018-07-23T05:45:33.265Z,95949.33
2018-07-23T05:48:01.856Z,95945.59
2018-07-23T05:50:30.429Z,95948.66
2018-07-23T05:52:59.065Z,95950.25
2018-07-23T05:55:27.776Z,95956.08
2018-07-23T05:57:56.386Z,95963.28
2018-07-23T06:00:24.986Z,95961.43
2018-07-23T06:02:53.582Z,95968.22
2018-07-23T06:05:24.224Z,95966.17
2018-07-23T06:07:52.964Z,95962.37
2018-07-23T06:10:21.570Z,95960.19
2018-07-23T06:12:50.213Z,95973.74
2018-07-23T06:15:18.800Z,95965.72
2018-07-23T06:17:47.364Z,95970.02
2018-07-23T06:20:15.944Z,95965.01
2018-07-23T06:22:44.576Z,95969.28
2018-07-23T06:25:13.266Z,95965.05
2018-07-23T06:27:42.127Z,95967.23
2018-07-23T06:30:11.591Z,95967.13
2018-07-23T06:32:40.334Z,95967.45
2018-07-23T06:35:09.003Z,95966.03
2018-07-23T06:37:37.562Z,95970.20
2018-07-23T06:40:07.567Z,95969.16
2018-07-23T06:42:36.131Z,95967.30
2018-07-23T06:45:04.813Z,95968.61
2018-07-23T06:47:33.471Z,95972.28
2018-07-23T06:50:02.053Z,95975.86
2018-07-23T06:52:30.708Z,95982.17
2018-07-23T06:54:59.279Z,95984.64
2018-07-23T06:57:28.050Z,95981.33
2018-07-23T06:59:56.737Z,95984.36
2018-07-23T07:02:25.276Z,95988.78
2018-07-23T07:04:53.843Z,95990.88
2018-07-23T07:07:22.412Z,95995.72
2018-07-23T07:09:50.996Z,95998.62
2018-07-23T07:12:19.631Z,96001.86
2018-07-23T07:14:48.222Z,96002.84
2018-07-23T07:17:16.799Z,96000.23
2018-07-23T07:19:45.489Z,95992.16
2018-07-23T07:22:14.036Z,95979.16
2018-07-23T07:24:42.682Z,95982.81
2018-07-23T07:27:11.481Z,95986.41
2018-07-23T07:29:40.027Z,95979.48
2018-07-23T07:32:08.577Z,95983.21
2018-07-23T07:34:37.175Z,95979.94
2018-07-23T07:37:05.867Z,95984.13
2018-07-23T07:39:34.411Z,95985.47
2018-07-23T07:42:03.057Z,95986.70
2018-07-23T07:44:31.648Z,95991.28
2018-07-23T07:47:00.211Z,95988.38
2018-07-23T07:49:29.025Z,95978.71
2018-07-23T07:51:57.821Z,95986.84
2018-07-23T07:54:26.417Z,95987.52
2018-07-23T07:56:55.021Z,95983.10
2018-07-23T07:59:24.280Z,95987.60
2018-07-23T08:01:52.839Z,95983.47
2018-07-23T08:04:21.401Z,95982.86
2018-07-23T08:06:49.969Z,95986.00
2018-07-23T08:09:18.551Z,95991.03
2018-07-23T08:11:47.257Z,95994.34
2018-07-23T08:14:15.975Z,95993.55
2018-07-23T08:16:44.547Z,95989.71
2018-07-23T08:19:13.847Z,95989.12
2018-07-23T08:21:42.408Z,95991.98
2018-07-23T08:24:11.069Z,95994.29
2018-07-23T08:26:39.608Z,96000.91
2018-07-23T08:29:08.219Z,96000.94
2018-07-23T08:31:36.913Z,96000.08
2018-07-23T08:34:05.603Z,95997.38
2018-07-23T08:36:34.212Z,95996.55
2018-07-23T08:39:03.655Z,95997.80
2018-07-23T08:41:32.427Z,95992.13
2018-07-23T08:44:01.256Z,95998.78
2018-07-23T08:46:29.944Z,95997.22
2018-07-23T08:48:58.568Z,95994.84
2018-07-23T08:51:27.242Z,95991.90
2018-07-23T08:53:55.797Z,95999.28
2018-07-23T08:56:24.362Z,96000.70
2018-07-23T08:58:53.029Z,96006.28
2018-07-23T09:01:21.593Z,96007.59
2018-07-23T09:03:50.170Z,96006.11
2018-07-23T09:06:18.752Z,96009.95
2018-07-23T09:08:47.513Z,96006.35
2018-07-23T09:11:16.049Z,96003.77
2018-07-23T09:13:44.704Z,96004.57
2018-07-23T09:16:13.318Z,96001.65
2018-07-23T09:18:41.909Z,96001.83
2018-07-23T09:21:11.756Z,96004.25
2018-07-23T09:23:40.466Z,96005.64
2018-07-23T09:26:09.216Z,96003.53
2018-07-23T09:28:37.760Z,96009.78
2018-07-23T09:31:06.446Z,96014.09
2018-07-23T09:33:35.068Z,96005.41
2018-07-23T09:36:03.655Z,95998.73
2018-07-23T09:38:32.189Z,96002.77
2018-07-23T09:41:00.751Z,96010.89
2018-07-23T09:43:29.303Z,96007.67
2018-07-23T09:45:57.897Z,96002.58
2018-07-23T09:48:26.463Z,96008.81
2018-07-23T09:50:55.026Z,96007.36
2018-07-23T09:53:23.722Z,96008.67
2018-07-23T09:55:52.251Z,96011.78
2018-07-23T09:58:20.851Z,96015.19
2018-07-23T10:01:02.383Z,96003.34
2018-07-23T10:03:31.046Z,96002.78
2018-07-23T10:05:59.526Z,96008.24
2018-07-23T10:08:29.016Z,95988.36
2018-07-23T10:10:57.858Z,95995.80
2018-07-23T10:13:26.484Z,95992.39
2018-07-23T10:15:55.072Z,95983.92
2018-07-23T10:18:23.839Z,95981.52
2018-07-23T10:20:52.503Z,95987.17
2018-07-23T10:23:21.068Z,95981.72
2018-07-23T10:25:49.649Z,95986.84
2018-07-23T10:28:18.223Z,95975.09
2018-07-23T10:30:46.851Z,95975.05
2018-07-23T10:33:15.494Z,95982.55
2018-07-23T10:35:44.081Z,95982.63
2018-07-23T10:38:12.668Z,95980.97
2018-07-23T10:40:41.403Z,95976.95
2018-07-23T10:43:11.371Z,95976.77
2018-07-23T10:45:40.088Z,95977.09
2018-07-23T10:48:08.662Z,95976.47
2018-07-23T10:50:37.212Z,95985.07
2018-07-23T10:53:05.815Z,95984.44
2018-07-23T10:55:34.667Z,95982.36
2018-07-23T10:58:03.214Z,95988.16
2018-07-23T11:00:31.744Z,95984.97
2018-07-23T11:03:00.316Z,95976.25
2018-07-23T11:05:29.192Z,95978.63
2018-07-23T11:07:57.762Z,95980.02
2018-07-23T11:10:26.553Z,95977.89
2018-07-23T11:12:55.264Z,95971.00
2018-07-23T11:15:24.461Z,95975.63
2018-07-23T11:17:53.008Z,95969.00
2018-07-23T11:20:21.738Z,95969.70
2018-07-23T11:22:50.286Z,95974.48
2018-07-23T11:25:39.178Z,95963.58
2018-07-23T11:27:47.604Z,95970.64
2018-07-23T11:30:16.190Z,95977.88
2018-07-23T11:32:44.773Z,95974.91
2018-07-23T11:35:13.588Z,95980.41
2018-07-23T11:37:42.205Z,95964.33
2018-07-23T11:40:10.873Z,95969.34
2018-07-23T11:42:39.702Z,95965.73
2018-07-23T11:45:08.348Z,95958.82
2018-07-23T11:47:36.946Z,95961.13
2018-07-23T11:50:05.644Z,95962.96
2018-07-23T11:52:34.242Z,95964.89
2018-07-23T11:55:02.832Z,95959.16
2018-07-23T11:57:31.399Z,95956.42
2018-07-23T12:00:00.042Z,95958.15
2018-07-23T12:02:28.647Z,95953.55
2018-07-23T12:04:57.299Z,95955.22
2018-07-23T12:07:26.287Z,95958.67
2018-07-23T12:09:55.012Z,95966.77
2018-07-23T12:12:23.840Z,95954.02
2018-07-23T12:14:53.217Z,95952.25
2018-07-23T12:17:24.716Z,95955.23
2018-07-23T12:19:53.461Z,95953.98
2018-07-23T12:22:22.120Z,95949.20
2018-07-23T12:24:50.677Z,95944.83
2018-07-23T12:27:19.316Z,95943.17
2018-07-23T12:29:47.956Z,95941.11
2018-07-23T12:32:16.500Z,95940.30
2018-07-23T12:34:45.073Z,95925.97
2018-07-23T12:37:14.646Z,95934.38
2018-07-23T12:39:43.205Z,95937.56
2018-07-23T12:42:11.817Z,95938.88
2018-07-23T12:44:40.512Z,95931.85
2018-07-23T12:47:09.141Z,95931.41
2018-07-23T12:49:37.675Z,95925.20
2018-07-23T12:52:06.245Z,95917.69
2018-07-23T12:54:34.896Z,95911.66
2018-07-23T12:57:03.516Z,95909.34
2018-07-23T12:59:32.103Z,95906.97
2018-07-23T13:02:00.696Z,95911.89
2018-07-23T13:04:29.356Z,95916.63
2018-07-23T13:06:57.944Z,95919.44
2018-07-23T13:09:26.583Z,95919.15
2018-07-23T13:11:55.216Z,95921.33
2018-07-23T13:14:23.964Z,95910.02
2018-07-23T13:16:52.534Z,95915.95
2018-07-23T13:19:21.164Z,95914.41
2018-07-23T13:21:49.754Z,95916.20
2018-07-23T13:24:18.384Z,95907.28
2018-07-23T13:26:47.115Z,95917.27
2018-07-23T13:29:16.094Z,95915.61
2018-07-23T13:31:44.643Z,95929.28
2018-07-23T13:34:13.317Z,95927.96
2018-07-23T13:36:42.100Z,95923.00
2018-07-23T13:39:13.531Z,95910.64
2018-07-23T13:41:42.340Z,95905.33
2018-07-23T13:44:12.080Z,95901.06
2018-07-23T13:46:40.977Z,95903.73
2018-07-23T13:49:09.610Z,95901.98
2018-07-23T13:51:38.224Z,95896.85
2018-07-23T13:54:07.024Z,95907.05
2018-07-23T13:56:35.678Z,95898.17
2018-07-23T13:59:04.298Z,95893.84
2018-07-23T14:01:33.063Z,95889.95
2018-07-23T14:04:01.831Z,95882.47
2018-07-23T14:06:30.461Z,95884.41
2018-07-23T14:08:59.040Z,95890.35
2018-07-23T14:11:27.681Z,95899.48
2018-07-23T14:13:57.146Z,95894.83
2018-07-23T14:16:27.661Z,95886.34
2018-07-23T14:18:56.324Z,95883.95
2018-07-23T14:21:32.888Z,95880.28
2018-07-23T14:24:01.511Z,95867.91
2018-07-23T14:26:31.451Z,95878.52
2018-07-23T14:29:00.068Z,95879.76
2018-07-23T14:31:28.804Z,95874.94
2018-07-23T14:33:57.395Z,95872.79
2018-07-23T14:36:26.027Z,95875.08
2018-07-23T14:38:54.577Z,95870.16
2018-07-23T14:41:23.151Z,95865.48
2018-07-23T14:43:51.763Z,95868.56
2018-07-23T14:46:20.343Z,95859.09
2018-07-23T14:48:48.896Z,95863.41
2018-07-23T14:51:17.754Z,95867.97
2018-07-23T14:53:46.391Z,95874.36
2018-07-23T14:56:15.078Z,95877.02
2018-07-23T14:58:43.707Z,95866.62
2018-07-23T15:01:12.341Z,95865.42
2018-07-23T15:03:40.907Z,95864.95
2018-07-23T15:06:09.493Z,95864.23
2018-07-23T15:08:38.100Z,95866.67
2018-07-23T15:11:06.719Z,95866.08
2018-07-23T15:13:35.292Z,95864.55
2018-07-23T15:16:03.920Z,95866.28
2018-07-23T15:18:32.511Z,95864.84
2018-07-23T15:21:01.098Z,95858.49
2018-07-23T15:23:29.784Z,95858.05
2018-07-23T15:26:04.799Z,95851.16
2018-07-23T15:28:33.364Z,95848.73
2018-07-23T15:31:01.901Z,95855.94
2018-07-23T15:33:30.541Z,95856.61
2018-07-23T15:35:59.142Z,95853.36
2018-07-23T15:38:27.827Z,95852.27
2018-07-23T15:40:56.415Z,95850.26
2018-07-23T15:43:25.053Z,95852.88
2018-07-23T15:45:53.800Z,95858.58
2018-07-23T15:48:22.362Z,95861.79
2018-07-23T15:50:51.276Z,95869.70
2018-07-23T15:53:20.007Z,95868.47
2018-07-23T15:55:48.648Z,95872.39
2018-07-23T15:58:17.211Z,95875.48
2018-07-23T16:00:45.792Z,95871.85
2018-07-23T16:03:14.550Z,95874.33
2018-07-23T16:05:44.154Z,95875.64
2018-07-23T16:08:12.741Z,95868.34
2018-07-23T16:10:41.445Z,95876.58
2018-07-23T16:13:09.993Z,95878.53
2018-07-23T16:15:38.648Z,95877.31
2018-07-23T16:18:07.220Z,95877.63
2018-07-23T16:20:35.800Z,95879.73
2018-07-23T16:23:04.415Z,95878.97
2018-07-23T16:25:33.016Z,95880.36
2018-07-23T16:28:01.608Z,95876.37
2018-07-23T16:30:30.184Z,95869.37
2018-07-23T16:32:58.801Z,95881.66
2018-07-23T16:35:27.605Z,95881.34
2018-07-23T16:37:56.200Z,95882.83
2018-07-23T16:40:24.811Z,95887.80
2018-07-23T16:42:53.700Z,95897.67
2018-07-23T16:45:22.260Z,95893.16
2018-07-23T16:47:50.874Z,95896.86
2018-07-23T16:50:19.492Z,95903.49
2018-07-23T16:52:48.637Z,95902.06
2018-07-23T16:55:17.284Z,95904.38
2018-07-23T16:57:45.844Z,95908.77
2018-07-23T17:00:14.529Z,95924.59
2018-07-23T17:02:43.160Z,95929.73
2018-07-23T17:05:12.243Z,95930.47
2018-07-23T17:07:40.817Z,95938.73
2018-07-23T17:10:09.472Z,95931.55
2018-07-23T17:12:38.031Z,95938.05
2018-07-23T17:15:08.677Z,95943.84
2018-07-23T17:17:37.336Z,95948.48
2018-07-23T17:20:06.788Z,95942.45
2018-07-23T17:22:35.376Z,95952.73
2018-07-23T17:25:04.060Z,95951.01
2018-07-23T17:27:32.725Z,95953.14
2018-07-23T17:30:01.336Z,95951.66
2018-07-23T17:32:30.134Z,95958.92
2018-07-23T17:34:58.676Z,95957.95
2018-07-23T17:37:27.342Z,95967.88
2018-07-23T17:39:55.908Z,95966.04
2018-07-23T17:42:24.479Z,95970.63
2018-07-23T17:44:53.127Z,95964.79
2018-07-23T17:47:21.780Z,95967.08
2018-07-23T17:49:50.387Z,95970.41
2018-07-23T17:52:18.991Z,95969.44
2018-07-23T17:54:47.558Z,95975.20
2018-07-23T17:57:16.145Z,95975.09
2018-07-23T17:59:44.764Z,95976.44
2018-07-23T18:02:14.410Z,95987.02
2018-07-23T18:04:43.434Z,95985.16
2018-07-23T18:07:12.852Z,95991.02
2018-07-23T18:09:41.435Z,95989.95
2018-07-23T18:12:10.106Z,95996.25
2018-07-23T18:14:38.892Z,96001.01
2018-07-23T18:17:07.539Z,95998.34
2018-07-23T18:19:36.126Z,96002.75
2018-07-23T18:22:04.766Z,95997.02
2018-07-23T18:24:33.466Z,96001.79
2018-07-23T18:27:02.030Z,96004.59
2018-07-23T18:29:30.607Z,96000.48
2018-07-23T18:31:59.181Z,96009.58
2018-07-23T18:34:27.763Z,96009.41
2018-07-23T18:36:56.424Z,96019.25
2018-07-23T18:39:25.124Z,96022.55
2018-07-23T18:41:53.651Z,96024.34
2018-07-23T18:44:22.365Z,96032.75
2018-07-23T18:46:50.932Z,96032.92
2018-07-23T18:49:33.036Z,96033.78
2018-07-23T18:52:01.626Z,96042.18
2018-07-23T18:54:31.205Z,96036.79
2018-07-23T18:57:00.937Z,96049.09
2018-07-23T18:59:29.533Z,96049.02
2018-07-23T19:01:58.675Z,96049.73
2018-07-23T19:04:27.352Z,96050.12
2018-07-23T19:06:55.943Z,96056.50
2018-07-23T19:09:25.618Z,96052.32
2018-07-23T19:11:55.084Z,96060.05
2018-07-23T19:14:23.696Z,96066.81
2018-07-23T19:16:53.272Z,96065.01
2018-07-23T19:19:21.964Z,96068.71
2018-07-23T19:21:50.520Z,96073.84
2018-07-23T19:24:19.661Z,96075.39
2018-07-23T19:26:48.247Z,96077.44
2018-07-23T19:29:16.888Z,96081.99
2018-07-23T19:31:45.449Z,96088.72
2018-07-23T19:34:14.104Z,96089.14
2018-07-23T19:36:42.742Z,96089.24
2018-07-23T19:39:13.216Z,96087.73
2018-07-23T19:41:41.870Z,96094.65
2018-07-23T19:44:10.873Z,96097.79
2018-07-23T19:46:39.858Z,96102.03
2018-07-23T19:49:08.544Z,96100.23
2018-07-23T19:51:37.406Z,96100.20
2018-07-23T19:54:06.912Z,96100.37
2018-07-23T19:56:35.494Z,96097.32
2018-07-23T19:59:04.207Z,96094.58
2018-07-23T20:01:32.944Z,96095.52
2018-07-23T20:04:01.556Z,96095.16
2018-07-23T20:06:31.009Z,96094.36
2018-07-23T20:09:01.395Z,96096.14
2018-07-23T20:11:30.490Z,96088.30
2018-07-23T20:13:59.043Z,96090.20
2018-07-23T20:16:27.668Z,96097.01
2018-07-23T20:18:56.301Z,96092.87
2018-07-23T20:21:31.412Z,96087.56
2018-07-23T20:24:00.046Z,96090.80
2018-07-23T20:26:28.617Z,96084.41
2018-07-23T20:28:57.201Z,96086.75
2018-07-23T20:31:25.864Z,96086.72
2018-07-23T20:33:54.430Z,96081.66
2018-07-23T20:36:23.258Z,96082.87
2018-07-23T20:38:51.867Z,96086.77
2018-07-23T20:41:20.440Z,96088.92
2018-07-23T20:43:49.029Z,96096.13
2018-07-23T20:46:17.608Z,96095.19
2018-07-23T20:48:46.291Z,96092.39
2018-07-23T20:51:15.957Z,96099.49
2018-07-23T20:53:44.567Z,96098.37
2018-07-23T20:56:13.135Z,96099.45
2018-07-23T20:58:41.700Z,96097.73
2018-07-23T21:01:10.298Z,96100.58
2018-07-23T21:03:39.057Z,96100.61
2018-07-23T21:06:07.675Z,96102.88
2018-07-23T21:08:36.257Z,96109.14
2018-07-23T21:11:04.893Z,96112.92
2018-07-23T21:13:33.468Z,96114.22
2018-07-23T21:16:02.253Z,96115.04
2018-07-23T21:18:30.816Z,96118.03
2018-07-23T21:21:00.302Z,96119.52
2018-07-23T21:23:29.036Z,96124.42
2018-07-23T21:25:57.631Z,96129.20
2018-07-23T21:28:26.207Z,96133.48
2018-07-23T21:30:54.780Z,96134.12
2018-07-23T21:33:23.708Z,96132.38
2018-07-23T21:35:52.323Z,96133.00
2018-07-23T21:38:21.052Z,96128.03
2018-07-23T21:40:49.682Z,96130.13
2018-07-23T21:43:18.245Z,96135.42
2018-07-23T21:45:46.902Z,96133.98
2018-07-23T21:48:15.513Z,96138.28
2018-07-23T21:50:44.236Z,96134.86
2018-07-23T21:53:13.192Z,96131.87
2018-07-23T21:55:41.743Z,96131.48
2018-07-23T21:58:10.307Z,96131.00
2018-07-23T22:00:38.917Z,96130.89
2018-07-23T22:03:07.598Z,96134.28
2018-07-23T22:05:36.913Z,96128.34
2018-07-23T22:08:06.391Z,96132.81
2018-07-23T22:10:34.986Z,96128.20
2018-07-23T22:13:03.716Z,96127.27
2018-07-23T22:15:32.275Z,96129.06
2018-07-23T22:18:00.860Z,96131.67
2018-07-23T22:20:29.556Z,96126.59
2018-07-23T22:22:58.185Z,96124.72
2018-07-23T22:25:26.794Z,96124.86
2018-07-23T22:27:55.397Z,96127.71
2018-07-23T22:30:24.060Z,96123.06
2018-07-23T22:32:52.963Z,96122.25
2018-07-23T22:35:21.645Z,96117.55
2018-07-23T22:37:51.060Z,96125.86
2018-07-23T22:40:19.623Z,96126.97
2018-07-23T22:42:48.266Z,96130.15
2018-07-23T22:45:17.862Z,96132.62
2018-07-23T22:47:46.483Z,96128.61
2018-07-23T22:50:15.084Z,96131.13
2018-07-23T22:52:43.733Z,96126.23
2018-07-23T22:55:12.830Z,96130.27
2018-07-23T22:57:41.575Z,96127.41
2018-07-23T23:00:10.236Z,96126.73
2018-07-23T23:02:38.979Z,96124.36
2018-07-23T23:05:07.658Z,96126.30
2018-07-23T23:07:36.243Z,96125.61
2018-07-23T23:10:04.899Z,96126.10
2018-07-23T23:12:33.540Z,96127.84
2018-07-23T23:15:02.145Z,96121.52
2018-07-23T23:17:30.769Z,96121.70
2018-07-23T23:19:59.389Z,96126.67
2018-07-23T23:22:28.188Z,96126.67
2018-07-23T23:24:56.819Z,96124.45
2018-07-23T23:27:25.736Z,96126.67
2018-07-23T23:29:54.317Z,96127.22
2018-07-23T23:32:22.951Z,96121.43
2018-07-23T23:34:51.621Z,96125.97
2018-07-23T23:37:20.287Z,96122.73
2018-07-23T23:39:48.935Z,96115.39
2018-07-23T23:42:17.748Z,96118.14
2018-07-23T23:44:46.441Z,96124.61
2018-07-23T23:47:15.127Z,96119.28
2018-07-23T23:49:43.700Z,96119.47
2018-07-23T23:52:12.371Z,96117.70
2018-07-23T23:54:41.015Z,96118.09
2018-07-23T23:57:10.952Z,96113.68
2018-07-23T23:59:39.553Z,96112.56
